Terminal Aerodrome Forecast
Issued by NWS Mt. Holly, NJ

Home | Current Version | Previous Version | Text Only | Print | Product List | Glossary On
Versions: 1 2 3 4 5 6 7 8 9 10 11 12 13 14 15 16 17 18 19 20 21
000
FTUS41 KPHI 262330
TAFRDG
TAF
KRDG 262330Z 2700/2724 28010KT P6SM SKC
     FM270100 27005KT P6SM SKC
     FM270800 VRB02KT P6SM SCT120
     FM271400 22005KT P6SM BKN080
     FM271800 22009G18KT P6SM SCT040 OVC070
     FM272300 22008KT P6SM SCT040 BKN070=

USA.gov is the U.S. government's official web portal to all federal, state and local government web resources and services.